Time;durP1;ratioP1;P1;durP2;ratioP2;P2;SDS_P1;SDS_P2;PMS_P1;PMS_P2;Temp;Humidity;BMP_temperature;BMP_pressure;BME280_temperature;BME280_humidity;BME280_pressure;Samples;Min_cycle;Max_cycle;Signal;HPM_P1;HPM_P2
2021/06/12 00:04:40;;;;;;;8.27;7.05;;;19.50;99.90;;;;;;10497142;28;20420;-60
2021/06/12 00:09:42;;;;;;;7.65;6.90;;;19.50;99.90;;;;;;10496193;28;20036;-62
2021/06/12 00:14:44;;;;;;;9.25;7.82;;;19.70;99.90;;;;;;10496243;28;20396;-62
2021/06/12 00:19:46;;;;;;;9.05;8.02;;;19.50;99.90;;;;;;10496367;28;20400;-62
2021/06/12 00:24:48;;;;;;;9.02;8.15;;;19.50;99.90;;;;;;10498456;28;20090;-60
2021/06/12 00:29:50;;;;;;;10.45;7.85;;;19.50;99.90;;;;;;10504409;28;20048;-61
2021/06/12 00:34:52;;;;;;;8.27;6.38;;;19.30;99.90;;;;;;10503527;28;20052;-62
2021/06/12 00:39:54;;;;;;;10.02;8.20;;;19.30;99.90;;;;;;10503969;28;20036;-61
2021/06/12 00:44:56;;;;;;;11.05;8.30;;;19.20;99.90;;;;;;10503237;28;20048;-61
2021/06/12 00:49:58;;;;;;;13.02;8.57;;;18.90;99.90;;;;;;10503326;28;20040;-61
2021/06/12 00:55:00;;;;;;;11.25;8.32;;;19.10;99.90;;;;;;10501908;28;20041;-62
2021/06/12 01:00:09;;;;;;;10.63;8.07;;;19.10;99.90;;;;;;10502719;28;20044;-62
2021/06/12 01:05:13;;;;;;;14.48;8.80;;;19.10;99.90;;;;;;10503225;28;20044;-61
2021/06/12 01:10:17;;;;;;;15.68;10.02;;;19.00;99.90;;;;;;10502365;28;20051;-61
2021/06/12 01:15:21;;;;;;;10.73;9.70;;;18.80;99.90;;;;;;10501915;28;20484;-61
2021/06/12 01:20:59;;;;;;;16.70;9.45;;;18.70;99.90;;;;;;10484535;28;20059;-62
2021/06/12 01:26:29;;;;;;;10.48;8.55;;;18.50;99.90;;;;;;10502017;28;20074;-61
2021/06/12 01:31:35;;;;;;;8.95;7.72;;;18.60;99.90;;;;;;10483969;28;20041;-60
2021/06/12 01:36:37;;;;;;;9.20;8.32;;;18.60;99.90;;;;;;10500114;28;20459;-62
2021/06/12 01:41:42;;;;;;;10.27;8.80;;;18.60;99.90;;;;;;10499892;28;20036;-61
2021/06/12 01:46:45;;;;;;;9.68;8.40;;;18.50;99.90;;;;;;10500531;28;20404;-62
2021/06/12 01:51:49;;;;;;;9.63;7.50;;;18.40;99.90;;;;;;10500688;28;20046;-62
2021/06/12 01:56:52;;;;;;;11.80;7.90;;;18.40;99.90;;;;;;10498995;28;20393;-60
2021/06/12 02:01:58;;;;;;;11.90;7.15;;;18.30;99.90;;;;;;10500584;28;20047;-62
2021/06/12 02:07:02;;;;;;;17.30;7.05;;;18.40;99.90;;;;;;10482453;28;20560;-60
2021/06/12 02:12:06;;;;;;;13.02;7.78;;;18.40;99.90;;;;;;10483007;28;20041;-62
2021/06/12 02:17:10;;;;;;;9.98;7.13;;;18.30;99.90;;;;;;10499546;28;20052;-60
2021/06/12 02:22:13;;;;;;;9.18;7.53;;;18.40;99.90;;;;;;10499320;28;20052;-61
2021/06/12 02:27:19;;;;;;;11.30;6.85;;;18.40;99.90;;;;;;10499285;28;20044;-61
2021/06/12 02:32:23;;;;;;;9.68;8.10;;;18.30;99.90;;;;;;10497935;28;20423;-63
2021/06/12 02:37:25;;;;;;;10.63;6.90;;;18.20;99.90;;;;;;10498824;28;20051;-61
2021/06/12 02:42:26;;;;;;;11.00;7.45;;;18.50;99.90;;;;;;10498957;28;20040;-62
2021/06/12 02:47:30;;;;;;;12.05;6.90;;;18.60;99.90;;;;;;10498860;28;20056;-63
2021/06/12 02:52:34;;;;;;;11.20;8.18;;;18.40;99.90;;;;;;10498672;28;20052;-61
2021/06/12 02:57:39;;;;;;;12.45;7.75;;;18.30;99.90;;;;;;10498650;28;20044;-61
2021/06/12 03:02:43;;;;;;;12.07;7.93;;;18.20;99.90;;;;;;10498307;28;20469;-61
2021/06/12 03:07:49;;;;;;;14.15;8.20;;;18.10;99.90;;;;;;10497216;28;20055;-61
2021/06/12 03:12:53;;;;;;;15.75;8.32;;;18.10;99.90;;;;;;10480607;28;20044;-61
2021/06/12 03:17:56;;;;;;;10.57;7.43;;;18.30;99.90;;;;;;10479999;28;20047;-61
2021/06/12 03:23:02;;;;;;;9.20;7.32;;;18.20;99.90;;;;;;10497564;28;20388;-61
2021/06/12 03:28:04;;;;;;;9.82;7.05;;;18.20;99.90;;;;;;10497421;28;20047;-62
2021/06/12 03:33:09;;;;;;;9.68;8.20;;;18.00;99.90;;;;;;10498704;28;20124;-61
2021/06/12 03:38:12;;;;;;;12.13;7.90;;;18.10;99.90;;;;;;10479857;28;20044;-61
2021/06/12 03:43:16;;;;;;;9.20;7.65;;;18.20;99.90;;;;;;10480315;28;20040;-61
2021/06/12 03:48:21;;;;;;;8.75;6.40;;;18.20;99.90;;;;;;10497379;28;20048;-61
2021/06/12 03:53:31;;;;;;;13.20;8.23;;;18.40;99.90;;;;;;10497440;28;20374;-61
2021/06/12 03:58:33;;;;;;;23.58;7.95;;;18.30;99.90;;;;;;10497339;28;20056;-62
2021/06/12 04:03:35;;;;;;;9.32;7.97;;;18.10;99.90;;;;;;10504817;28;20051;-61
2021/06/12 04:08:38;;;;;;;12.13;7.82;;;18.00;99.90;;;;;;10504678;28;20051;-62
2021/06/12 04:13:40;;;;;;;12.80;7.90;;;18.00;99.90;;;;;;10486918;28;20044;-61
2021/06/12 04:18:42;;;;;;;9.10;7.50;;;17.90;99.90;;;;;;10504598;28;20052;-62
2021/06/12 04:23:44;;;;;;;11.50;7.70;;;18.10;99.90;;;;;;10504283;28;20067;-62
2021/06/12 04:28:46;;;;;;;10.02;6.78;;;18.20;99.90;;;;;;10503961;28;20043;-61
2021/06/12 04:33:48;;;;;;;8.40;6.50;;;18.20;99.90;;;;;;10504381;28;20048;-62
2021/06/12 04:38:50;;;;;;;10.18;7.70;;;18.30;99.90;;;;;;10503814;28;20362;-62
2021/06/12 04:43:52;;;;;;;10.75;7.53;;;18.50;99.90;;;;;;10503378;28;20473;-61
2021/06/12 04:48:54;;;;;;;13.55;8.75;;;18.40;99.90;;;;;;10503306;28;20385;-61
2021/06/12 04:53:56;;;;;;;12.55;8.50;;;18.40;99.90;;;;;;10503061;28;20048;-62
2021/06/12 04:58:58;;;;;;;8.23;7.43;;;18.20;99.90;;;;;;10503204;28;20047;-61
2021/06/12 05:03:59;;;;;;;10.70;8.07;;;18.30;99.90;;;;;;10502727;28;20481;-62
2021/06/12 05:09:02;;;;;;;13.15;9.88;;;18.40;99.90;;;;;;10503053;28;20051;-61
2021/06/12 05:14:04;;;;;;;10.85;9.50;;;18.20;99.90;;;;;;10484413;28;20051;-61
2021/06/12 05:19:06;;;;;;;16.15;10.40;;;18.30;99.90;;;;;;10502229;28;20063;-60
2021/06/12 05:24:08;;;;;;;15.25;11.68;;;18.40;99.90;;;;;;10501907;28;20044;-61
2021/06/12 05:29:10;;;;;;;14.90;12.88;;;18.50;99.90;;;;;;10501813;28;20037;-61
2021/06/12 05:34:12;;;;;;;16.85;14.02;;;18.50;99.90;;;;;;10484248;28;20046;-60
2021/06/12 05:39:15;;;;;;;15.25;13.02;;;18.50;99.90;;;;;;10501448;28;20044;-61
2021/06/12 05:44:17;;;;;;;19.50;15.25;;;18.60;99.90;;;;;;10501339;28;20047;-61
2021/06/12 05:49:20;;;;;;;27.58;18.88;;;18.50;99.90;;;;;;10500893;28;20361;-62
2021/06/12 05:54:22;;;;;;;20.83;16.40;;;18.40;99.90;;;;;;10500538;28;20037;-62
2021/06/12 05:59:23;;;;;;;19.13;15.35;;;18.50;99.90;;;;;;10500773;28;20051;-63
2021/06/12 06:04:25;;;;;;;22.92;15.20;;;18.50;99.90;;;;;;10500324;28;20518;-61
2021/06/12 06:09:27;;;;;;;20.25;15.82;;;18.50;99.90;;;;;;10500401;28;20051;-62
2021/06/12 06:14:29;;;;;;;20.75;15.25;;;18.50;99.90;;;;;;10499830;28;20038;-61
2021/06/12 06:19:31;;;;;;;21.65;17.23;;;18.70;99.90;;;;;;10500239;28;20055;-61
2021/06/12 06:24:33;;;;;;;18.67;14.77;;;18.70;99.90;;;;;;10498858;28;20041;-62
2021/06/12 06:29:35;;;;;;;21.08;14.45;;;19.00;99.90;;;;;;10499320;28;20460;-63
2021/06/12 06:34:37;;;;;;;22.38;16.35;;;19.20;99.90;;;;;;10499211;28;20048;-64
2021/06/12 06:39:39;;;;;;;18.27;14.00;;;19.40;99.90;;;;;;10499208;28;20047;-61
2021/06/12 06:44:41;;;;;;;23.63;15.13;;;19.60;99.90;;;;;;10499268;28;20066;-61
2021/06/12 06:49:43;;;;;;;17.75;15.10;;;19.40;99.90;;;;;;10498617;28;20048;-61
2021/06/12 06:54:45;;;;;;;20.40;15.95;;;19.40;99.90;;;;;;10498290;28;20499;-61
2021/06/12 06:59:47;;;;;;;16.33;12.52;;;19.50;99.90;;;;;;10498414;28;20420;-63
2021/06/12 07:04:49;;;;;;;17.88;13.38;;;19.70;99.90;;;;;;10498394;28;20045;-62
2021/06/12 07:09:52;;;;;;;15.10;13.30;;;19.60;99.90;;;;;;10480451;28;20055;-62
2021/06/12 07:14:54;;;;;;;13.98;11.75;;;19.90;99.90;;;;;;10497621;28;20052;-61
2021/06/12 07:19:57;;;;;;;13.77;12.07;;;20.00;99.90;;;;;;10496274;28;20052;-62
2021/06/12 07:24:59;;;;;;;12.55;10.25;;;19.90;99.90;;;;;;10480298;28;20049;-62
2021/06/12 07:30:02;;;;;;;9.98;8.98;;;20.10;99.90;;;;;;10497941;28;20393;-62
2021/06/12 07:35:05;;;;;;;11.20;8.50;;;20.50;99.90;;;;;;10501853;28;20052;-62
2021/06/12 07:40:08;;;;;;;9.80;8.20;;;20.50;99.90;;;;;;10506197;28;20091;-61
2021/06/12 07:45:10;;;;;;;12.18;7.68;;;20.40;99.90;;;;;;10504623;28;20041;-61
2021/06/12 07:50:14;;;;;;;11.68;9.02;;;20.60;99.90;;;;;;10505640;28;20472;-63
2021/06/12 07:55:16;;;;;;;10.18;6.88;;;20.60;99.90;;;;;;10487570;28;20048;-62
2021/06/12 08:00:18;;;;;;;9.90;6.68;;;20.50;99.90;;;;;;10505629;28;20037;-62
2021/06/12 08:05:21;;;;;;;6.35;5.55;;;20.80;99.90;;;;;;10504864;28;20480;-61
2021/06/12 08:10:23;;;;;;;5.93;4.55;;;20.80;99.90;;;;;;10505214;28;20036;-61
2021/06/12 08:15:25;;;;;;;7.57;4.93;;;21.00;99.90;;;;;;10504470;28;20469;-61
2021/06/12 08:20:27;;;;;;;6.95;4.65;;;21.00;99.90;;;;;;10504201;28;20053;-62
2021/06/12 08:25:29;;;;;;;6.13;5.22;;;20.90;99.90;;;;;;10504053;28;20045;-62
2021/06/12 08:30:37;;;;;;;7.32;4.22;;;21.00;99.90;;;;;;10504313;28;20043;-64
2021/06/12 08:35:39;;;;;;;6.95;4.45;;;21.00;99.90;;;;;;10503655;28;20036;-62
2021/06/12 08:40:41;;;;;;;7.85;4.00;;;21.30;99.90;;;;;;10503897;28;20036;-63
2021/06/12 08:45:44;;;;;;;8.20;4.28;;;21.70;99.90;;;;;;10502879;28;20041;-61
2021/06/12 08:50:46;;;;;;;6.32;3.95;;;21.70;97.80;;;;;;10485832;28;20044;-62
2021/06/12 08:55:48;;;;;;;5.95;4.00;;;21.20;97.90;;;;;;10503049;28;20041;-63
2021/06/12 09:00:51;;;;;;;7.03;4.07;;;21.00;98.60;;;;;;10503290;28;20040;-62
2021/06/12 09:05:56;;;;;;;5.68;2.90;;;20.80;98.60;;;;;;10502661;28;20044;-62
2021/06/12 09:11:11;;;;;;;8.57;4.25;;;21.40;98.20;;;;;;10502541;28;20385;-62
2021/06/12 09:16:39;;;;;;;5.68;3.30;;;21.90;97.00;;;;;;10502065;28;20044;-62
2021/06/12 09:21:51;;;;;;;5.72;3.20;;;22.50;96.30;;;;;;10500865;28;20049;-62
2021/06/12 09:27:09;;;;;;;7.43;2.95;;;22.70;94.50;;;;;;10502115;28;20067;-63
2021/06/12 09:32:13;;;;;;;6.88;3.05;;;22.90;94.60;;;;;;10501658;28;20072;-61
2021/06/12 09:37:19;;;;;;;5.07;2.78;;;23.30;93.50;;;;;;10501280;28;20475;-62
2021/06/12 09:42:45;;;;;;;4.80;2.53;;;23.10;93.50;;;;;;10501263;28;20468;-62
2021/06/12 09:47:47;;;;;;;9.93;3.80;;;22.90;93.70;;;;;;10501097;28;20052;-62
2021/06/12 09:52:52;;;;;;;6.35;3.40;;;23.00;93.10;;;;;;10500934;28;20040;-63
2021/06/12 09:57:56;;;;;;;6.53;3.15;;;23.20;92.10;;;;;;10499448;28;20396;-62
2021/06/12 10:02:59;;;;;;;7.18;3.10;;;23.10;92.10;;;;;;10500826;28;20036;-63
2021/06/12 10:08:02;;;;;;;7.20;3.30;;;23.40;92.10;;;;;;10500072;28;20048;-62
2021/06/12 10:13:05;;;;;;;5.85;2.58;;;23.60;89.80;;;;;;10500047;28;20036;-62
2021/06/12 10:18:11;;;;;;;5.32;3.10;;;23.40;90.90;;;;;;10482455;28;20471;-63
2021/06/12 10:23:19;;;;;;;5.68;2.88;;;23.30;91.40;;;;;;10702168;27;107113;-62
2021/06/12 10:28:22;;;;;;;6.13;3.30;;;23.70;91.00;;;;;;10662068;27;20041;-62
2021/06/12 10:33:24;;;;;;;8.90;3.28;;;23.60;92.50;;;;;;10661691;27;20043;-62
2021/06/12 10:38:30;;;;;;;5.97;3.50;;;23.70;90.30;;;;;;10660765;27;20042;-61
2021/06/12 10:43:38;;;;;;;6.28;3.95;;;23.50;90.60;;;;;;10661266;27;20039;-61
2021/06/12 10:48:56;;;;;;;7.18;3.28;;;23.30;90.10;;;;;;10660976;27;20050;-61
2021/06/12 10:54:10;;;;;;;10.82;3.47;;;23.00;90.60;;;;;;10660957;27;20042;-62
2021/06/12 10:59:13;;;;;;;8.60;4.28;;;23.20;90.70;;;;;;10661035;27;20045;-61
2021/06/12 11:10:11;;;;;;;5.72;2.47;;;23.80;91.50;;;;;;10660452;27;20038;-61
2021/06/12 11:15:27;;;;;;;4.30;2.65;;;24.50;90.30;;;;;;10659994;27;20043;-62
2021/06/12 11:20:30;;;;;;;7.70;2.63;;;23.90;87.80;;;;;;10659195;27;20406;-61
2021/06/12 11:25:32;;;;;;;6.18;2.78;;;24.70;90.20;;;;;;10659702;27;20043;-62
2021/06/12 11:30:34;;;;;;;8.48;2.65;;;23.90;87.70;;;;;;10654426;27;20047;-62
2021/06/12 11:35:50;;;;;;;10.55;2.65;;;24.30;91.30;;;;;;10630606;27;20122;-62
2021/06/12 11:41:08;;;;;;;10.27;3.20;;;25.00;82.10;;;;;;10630333;27;20039;-61
2021/06/12 11:46:19;;;;;;;7.07;2.08;;;24.70;81.00;;;;;;10630206;27;20049;-62
2021/06/12 11:51:30;;;;;;;;;;;24.40;86.90;;;;;;10629850;27;20071;-61
2021/06/12 11:56:40;;;;;;;4.38;2.08;;;23.90;88.00;;;;;;10629809;27;20290;-61
2021/06/12 12:01:50;;;;;;;6.07;2.45;;;24.10;85.80;;;;;;10630124;27;20058;-62
2021/06/12 12:06:56;;;;;;;7.97;2.88;;;24.20;83.50;;;;;;10629398;27;20051;-61
2021/06/12 12:12:10;;;;;;;4.68;2.15;;;24.90;81.00;;;;;;10629484;27;20046;-62
2021/06/12 12:17:31;;;;;;;7.88;2.28;;;25.00;79.20;;;;;;10627610;27;20047;-63
2021/06/12 12:22:47;;;;;;;6.80;2.10;;;25.20;76.80;;;;;;10629154;27;20050;-62
2021/06/12 12:28:05;;;;;;;4.38;1.88;;;25.20;79.00;;;;;;10627481;27;20042;-62
2021/06/12 12:33:09;;;;;;;3.20;1.80;;;25.80;79.20;;;;;;10627124;27;20047;-61
2021/06/12 12:38:21;;;;;;;5.00;2.78;;;25.00;80.70;;;;;;10627891;27;20364;-61
2021/06/12 12:43:22;;;;;;;4.97;2.17;;;25.50;78.60;;;;;;10627051;27;20043;-61
2021/06/12 12:48:25;;;;;;;5.22;2.38;;;26.00;80.20;;;;;;10627836;27;20054;-61
2021/06/12 12:53:40;;;;;;;6.85;2.72;;;26.20;75.40;;;;;;10626108;27;20043;-61
2021/06/12 12:58:52;;;;;;;4.18;1.85;;;26.10;81.30;;;;;;10627163;27;20500;-62
2021/06/12 13:03:55;;;;;;;5.03;2.45;;;25.30;77.20;;;;;;10627540;27;20049;-61
2021/06/12 13:09:17;;;;;;;6.00;2.10;;;25.40;78.40;;;;;;10626952;27;20126;-63
2021/06/12 13:14:33;;;;;;;4.50;2.30;;;25.80;74.20;;;;;;10627040;27;20084;-62
2021/06/12 13:19:38;;;;;;;8.25;2.45;;;26.40;75.30;;;;;;10626275;27;20059;-62
2021/06/12 13:25:12;;;;;;;3.70;1.73;;;26.30;73.20;;;;;;10625974;27;20042;-62
2021/06/12 13:30:17;;;;;;;5.35;1.88;;;25.80;79.40;;;;;;10626118;27;20043;-62
2021/06/12 13:35:29;;;;;;;7.38;1.63;;;26.90;72.80;;;;;;10625974;27;20063;-62
2021/06/12 13:40:40;;;;;;;4.85;1.83;;;26.90;71.60;;;;;;10625597;27;20047;-61
2021/06/12 13:45:43;;;;;;;5.78;2.05;;;26.70;69.30;;;;;;10625425;27;20047;-61
2021/06/12 13:50:45;;;;;;;6.75;2.25;;;26.90;70.70;;;;;;10625258;27;20043;-62
2021/06/12 13:55:48;;;;;;;7.00;2.08;;;26.70;68.70;;;;;;10623953;27;20039;-61
2021/06/12 14:00:50;;;;;;;8.07;2.25;;;26.60;74.20;;;;;;10624967;27;20446;-62
2021/06/12 14:05:51;;;;;;;9.95;2.80;;;25.50;69.40;;;;;;10624723;27;20035;-62
2021/06/12 14:10:55;;;;;;;7.85;2.38;;;26.40;71.50;;;;;;10624720;27;20414;-61
2021/06/12 14:15:57;;;;;;;7.38;2.00;;;27.30;68.50;;;;;;10624626;27;20063;-61
2021/06/12 14:20:59;;;;;;;3.28;1.60;;;27.50;70.50;;;;;;10624368;27;20057;-61
2021/06/12 14:26:04;;;;;;;6.40;1.98;;;27.00;72.70;;;;;;10624065;28;20035;-62
2021/06/12 14:31:07;;;;;;;7.07;2.08;;;27.30;77.00;;;;;;10624905;27;20043;-62
2021/06/12 14:36:11;;;;;;;6.82;2.70;;;26.90;69.20;;;;;;10624149;27;20039;-62
2021/06/12 14:41:13;;;;;;;5.13;1.80;;;27.40;67.90;;;;;;10624159;27;20039;-61
2021/06/12 14:46:15;;;;;;;4.55;1.73;;;27.70;66.50;;;;;;10624364;28;20074;-62
2021/06/12 14:51:17;;;;;;;3.67;1.60;;;27.10;72.60;;;;;;10624122;27;20046;-62
2021/06/12 14:56:18;;;;;;;6.43;1.67;;;26.40;73.00;;;;;;10623522;27;20066;-61
2021/06/12 15:01:20;;;;;;;6.40;1.95;;;26.60;69.80;;;;;;10622386;28;20486;-62
2021/06/12 15:06:22;;;;;;;5.03;1.60;;;26.40;71.50;;;;;;10624427;27;20166;-61
2021/06/12 15:11:24;;;;;;;2.88;1.40;;;25.90;69.80;;;;;;10631935;27;20050;-61
2021/06/12 15:16:26;;;;;;;5.57;2.25;;;25.60;75.60;;;;;;10631372;27;20039;-61
2021/06/12 15:21:28;;;;;;;7.50;1.55;;;25.70;69.90;;;;;;10630914;27;20493;-61
2021/06/12 15:26:30;;;;;;;6.88;1.73;;;25.60;73.20;;;;;;10631497;27;20386;-60
2021/06/12 15:31:33;;;;;;;4.38;1.45;;;25.60;69.40;;;;;;10630705;27;20475;-61
2021/06/12 15:36:35;;;;;;;5.22;1.75;;;25.40;68.80;;;;;;10630403;27;20425;-63
2021/06/12 15:41:37;;;;;;;6.07;2.60;;;25.30;68.70;;;;;;10630394;27;20493;-62
2021/06/12 15:46:38;;;;;;;3.00;1.73;;;25.10;72.70;;;;;;10629909;27;20047;-62
2021/06/12 15:51:41;;;;;;;2.63;1.13;;;24.80;72.90;;;;;;10630172;27;20082;-62
2021/06/12 15:56:43;;;;;;;3.92;1.60;;;24.80;71.90;;;;;;10630142;27;20100;-61
2021/06/12 16:01:45;;;;;;;4.45;1.33;;;24.50;68.20;;;;;;10629616;27;20039;-61
2021/06/12 16:06:47;;;;;;;4.38;1.45;;;24.70;71.00;;;;;;10629056;27;20047;-62
2021/06/12 16:11:49;;;;;;;6.97;1.67;;;24.20;70.20;;;;;;10628202;27;20039;-62
2021/06/12 16:16:51;;;;;;;4.30;1.17;;;24.50;71.70;;;;;;10628812;27;20093;-62
2021/06/12 16:21:53;;;;;;;3.13;1.50;;;24.70;69.90;;;;;;10628297;27;20395;-62
2021/06/12 16:26:55;;;;;;;3.47;1.60;;;24.70;73.50;;;;;;10628683;27;20066;-62
2021/06/12 16:31:58;;;;;;;5.38;2.15;;;24.50;70.80;;;;;;10628209;27;20081;-62
2021/06/12 16:37:00;;;;;;;5.43;1.55;;;24.30;72.40;;;;;;10628277;27;20091;-61
2021/06/12 16:42:03;;;;;;;6.93;1.83;;;24.40;68.80;;;;;;10626796;27;20039;-62
2021/06/12 16:47:05;;;;;;;3.50;1.60;;;24.10;72.20;;;;;;10627835;27;20050;-62
2021/06/12 16:52:07;;;;;;;5.07;1.95;;;24.10;69.90;;;;;;10627682;27;20047;-61
2021/06/12 16:57:31;;;;;;;3.53;1.55;;;23.90;70.20;;;;;;10627457;27;20047;-61
2021/06/12 17:02:33;;;;;;;6.45;1.80;;;23.30;72.90;;;;;;10627466;27;20035;-62
2021/06/12 17:07:35;;;;;;;4.15;1.50;;;23.30;72.90;;;;;;10626755;27;20379;-63
2021/06/12 17:12:37;;;;;;;5.43;2.17;;;22.80;74.00;;;;;;10625713;27;20079;-62
2021/06/12 17:17:39;;;;;;;10.55;2.33;;;22.50;74.10;;;;;;10626384;27;20050;-62
2021/06/12 17:22:42;;;;;;;2.95;1.90;;;22.30;74.40;;;;;;10626199;27;20395;-61
2021/06/12 17:27:43;;;;;;;4.13;2.08;;;22.50;76.40;;;;;;10626126;27;20046;-61
2021/06/12 17:32:47;;;;;;;4.82;2.28;;;22.60;75.10;;;;;;10625579;27;20047;-62
2021/06/12 17:37:49;;;;;;;4.47;1.80;;;22.20;76.40;;;;;;10625709;27;20505;-62
2021/06/12 17:42:53;;;;;;;9.00;2.72;;;22.30;75.50;;;;;;10626061;27;20039;-62
2021/06/12 17:47:55;;;;;;;4.28;1.95;;;22.20;76.90;;;;;;10625532;27;20045;-61
2021/06/12 17:52:57;;;;;;;5.97;1.85;;;22.30;75.30;;;;;;10623939;27;20051;-62
2021/06/12 17:57:59;;;;;;;3.95;2.00;;;21.80;74.80;;;;;;10625467;27;20041;-61
2021/06/12 18:03:01;;;;;;;8.35;3.08;;;21.60;76.60;;;;;;10624411;27;20498;-62
2021/06/12 18:08:05;;;;;;;6.65;2.03;;;21.50;76.70;;;;;;10623735;27;20431;-61
2021/06/12 18:13:07;;;;;;;4.00;2.08;;;21.20;75.50;;;;;;10624649;27;20039;-61
2021/06/12 18:18:09;;;;;;;6.30;2.85;;;20.90;79.70;;;;;;10625451;27;20039;-61
2021/06/12 18:23:11;;;;;;;7.75;2.88;;;21.10;78.40;;;;;;10624734;28;20062;-61
2021/06/12 18:28:13;;;;;;;5.20;2.17;;;21.00;78.90;;;;;;10624417;27;20406;-61
2021/06/12 18:33:19;;;;;;;3.58;2.67;;;20.80;78.10;;;;;;10624597;27;20039;-61
2021/06/12 18:38:22;;;;;;;6.85;2.22;;;20.60;78.10;;;;;;10623221;28;20425;-61
2021/06/12 18:43:23;;;;;;;10.20;2.50;;;20.60;77.90;;;;;;10629384;27;20039;-61
2021/06/12 18:48:25;;;;;;;6.28;2.85;;;20.10;79.40;;;;;;10632567;27;20360;-60
2021/06/12 18:53:27;;;;;;;6.68;2.80;;;20.10;79.50;;;;;;10632186;27;20055;-62
2021/06/12 18:58:29;;;;;;;6.88;2.53;;;20.20;79.50;;;;;;10632106;27;20053;-60
2021/06/12 19:03:31;;;;;;;6.28;2.60;;;20.00;80.90;;;;;;10631865;27;20050;-62
2021/06/12 19:08:34;;;;;;;7.10;3.38;;;20.00;79.60;;;;;;10631718;27;20051;-60
2021/06/12 19:13:36;;;;;;;9.57;3.40;;;20.00;78.90;;;;;;10631750;27;20054;-62
2021/06/12 19:18:39;;;;;;;3.85;2.88;;;19.90;79.40;;;;;;10631542;27;20039;-61
2021/06/12 19:23:41;;;;;;;9.35;2.78;;;19.50;81.60;;;;;;10631113;27;20047;-61
2021/06/12 19:28:43;;;;;;;6.38;3.00;;;19.40;80.40;;;;;;10631038;27;20050;-61
2021/06/12 19:33:45;;;;;;;8.35;2.85;;;19.10;81.60;;;;;;10630726;27;20519;-61
2021/06/12 19:43:51;;;;;;;5.38;3.00;;;19.10;82.10;;;;;;10630163;27;20391;-60
2021/06/12 19:48:53;;;;;;;6.70;2.58;;;19.00;81.30;;;;;;10630271;27;20045;-61
2021/06/12 19:53:55;;;;;;;7.97;3.65;;;18.90;81.50;;;;;;10629947;27;20043;-61
2021/06/12 19:58:57;;;;;;;3.05;2.53;;;19.00;81.50;;;;;;10629964;27;20112;-62
2021/06/12 20:03:59;;;;;;;7.90;3.42;;;18.80;83.00;;;;;;10629537;27;20163;-60
2021/06/12 20:09:02;;;;;;;10.60;4.38;;;18.80;83.10;;;;;;10630302;27;20039;-62
2021/06/12 20:14:04;;;;;;;11.23;3.80;;;18.70;83.70;;;;;;10629233;27;20043;-60
2021/06/12 20:19:06;;;;;;;7.30;3.90;;;18.60;84.70;;;;;;10629095;27;20046;-60
2021/06/12 20:24:08;;;;;;;11.27;4.00;;;18.60;85.90;;;;;;10628827;27;20065;-60
2021/06/12 20:29:10;;;;;;;9.38;3.65;;;18.20;85.20;;;;;;10628643;27;20467;-61
2021/06/12 20:34:12;;;;;;;7.85;4.22;;;18.10;85.60;;;;;;10628486;27;20049;-62
2021/06/12 20:39:14;;;;;;;8.88;3.55;;;18.10;86.40;;;;;;10628333;27;20046;-60
2021/06/12 20:44:16;;;;;;;12.30;4.05;;;17.90;86.30;;;;;;10628258;27;20035;-61
2021/06/12 20:49:18;;;;;;;7.63;4.15;;;17.90;86.60;;;;;;10628068;27;20069;-60
2021/06/12 20:54:20;;;;;;;10.30;5.43;;;17.80;88.00;;;;;;10627370;27;20359;-60
2021/06/12 20:59:22;;;;;;;9.77;4.82;;;17.70;87.80;;;;;;10627470;27;20384;-61
2021/06/12 21:04:23;;;;;;;9.05;4.13;;;17.60;87.90;;;;;;10626139;27;20489;-61
2021/06/12 21:09:25;;;;;;;12.52;4.85;;;17.40;88.10;;;;;;10627601;27;20042;-62
2021/06/12 21:14:27;;;;;;;14.82;4.80;;;17.50;88.70;;;;;;10626678;27;20042;-62
2021/06/12 21:19:29;;;;;;;8.40;4.43;;;17.40;89.20;;;;;;10627076;27;20046;-61
2021/06/12 21:24:31;;;;;;;12.35;4.50;;;17.40;89.30;;;;;;10626221;27;20406;-60
2021/06/12 21:29:33;;;;;;;8.55;4.18;;;17.30;89.90;;;;;;10626202;27;20039;-60
2021/06/12 21:34:35;;;;;;;9.48;5.03;;;17.00;90.20;;;;;;10626028;27;20047;-60
2021/06/12 21:39:40;;;;;;;12.82;5.65;;;17.00;90.60;;;;;;10625522;27;20047;-60
2021/06/12 21:44:43;;;;;;;10.18;4.85;;;16.90;90.10;;;;;;10625883;27;20038;-60
2021/06/12 21:49:45;;;;;;;10.25;4.78;;;16.90;90.80;;;;;;10625367;27;20413;-60
2021/06/12 21:54:47;;;;;;;17.65;5.97;;;16.80;90.70;;;;;;10625020;27;20050;-60
2021/06/12 21:59:49;;;;;;;12.63;5.18;;;16.80;90.50;;;;;;10625543;27;20039;-61
2021/06/12 22:04:51;;;;;;;14.93;5.75;;;16.70;90.40;;;;;;10624945;27;20035;-61
2021/06/12 22:09:53;;;;;;;11.68;5.35;;;16.60;91.00;;;;;;10623896;27;20039;-60
2021/06/12 22:14:55;;;;;;;9.27;5.40;;;16.50;91.40;;;;;;10624509;27;20046;-61
2021/06/12 22:19:57;;;;;;;11.85;5.38;;;16.30;91.90;;;;;;10624842;27;20047;-61
2021/06/12 22:24:59;;;;;;;13.02;7.30;;;16.00;92.50;;;;;;10624207;27;20043;-60
2021/06/12 22:30:01;;;;;;;12.52;5.68;;;16.00;93.00;;;;;;10624412;28;20049;-61
2021/06/12 22:35:04;;;;;;;9.95;5.20;;;16.00;92.40;;;;;;10624265;27;20046;-59
2021/06/12 22:40:07;;;;;;;13.20;6.25;;;16.10;92.30;;;;;;10624135;27;20039;-60
2021/06/12 22:45:10;;;;;;;10.95;5.85;;;15.90;92.60;;;;;;10622662;28;20509;-60
2021/06/12 22:50:12;;;;;;;11.90;6.57;;;15.80;92.40;;;;;;10624048;27;20035;-61
2021/06/12 22:55:14;;;;;;;15.95;6.70;;;15.50;93.90;;;;;;10624414;27;20043;-61
2021/06/12 23:00:19;;;;;;;18.95;6.60;;;15.50;94.20;;;;;;10623084;28;20035;-60
2021/06/12 23:05:22;;;;;;;14.38;6.32;;;15.60;93.20;;;;;;10623661;27;20051;-61
2021/06/12 23:10:24;;;;;;;16.42;6.70;;;15.70;93.70;;;;;;10622409;28;20039;-60
2021/06/12 23:15:26;;;;;;;21.58;7.05;;;15.50;94.60;;;;;;10623330;28;20046;-61
2021/06/12 23:20:28;;;;;;;10.98;6.40;;;15.60;94.00;;;;;;10622500;28;20055;-61
2021/06/12 23:25:30;;;;;;;20.13;7.85;;;15.40;94.10;;;;;;10623267;28;20039;-61
2021/06/12 23:30:33;;;;;;;18.85;7.38;;;15.50;94.30;;;;;;10630599;27;20047;-60
2021/06/12 23:35:35;;;;;;;16.95;6.65;;;15.30;94.40;;;;;;10631289;27;20117;-60
2021/06/12 23:40:37;;;;;;;13.23;7.03;;;15.20;94.70;;;;;;10630651;27;20042;-60
2021/06/12 23:45:39;;;;;;;13.63;6.45;;;15.10;95.40;;;;;;10630441;27;20045;-60
2021/06/12 23:50:41;;;;;;;14.90;6.18;;;15.20;94.70;;;;;;10630526;27;20108;-59
2021/06/12 23:55:43;;;;;;;16.95;7.20;;;15.10;95.30;;;;;;10629966;27;20050;-61
